createdAt,value
2017-08-25T00:00:09.418Z,931.2
2017-08-25T00:00:28.751Z,931.18
2017-08-25T00:00:48.055Z,931.19
2017-08-25T00:01:05.791Z,931.18
2017-08-25T00:01:24.560Z,931.18
2017-08-25T00:01:42.847Z,931.19
2017-08-25T00:02:01.621Z,931.16
2017-08-25T00:02:20.934Z,931.2
2017-08-25T00:02:39.209Z,931.19
2017-08-25T00:02:57.997Z,931.15
2017-08-25T00:03:17.306Z,931.16
2017-08-25T00:03:36.594Z,931.15
2017-08-25T00:03:55.351Z,931.16
2017-08-25T00:04:14.644Z,931.15
2017-08-25T00:04:33.949Z,931.17
2017-08-25T00:04:52.723Z,931.14
2017-08-25T00:05:12.020Z,931.15
2017-08-25T00:05:31.333Z,931.14
2017-08-25T00:05:50.114Z,931.18
2017-08-25T00:06:07.855Z,931.17
2017-08-25T00:06:27.177Z,931.14
2017-08-25T00:06:45.942Z,931.16
2017-08-25T00:07:04.721Z,931.2
2017-08-25T00:07:22.977Z,931.15
2017-08-25T00:07:42.257Z,931.17
2017-08-25T00:08:01.534Z,931.17
2017-08-25T00:08:20.314Z,931.18
2017-08-25T00:08:39.077Z,931.17
2017-08-25T00:08:57.839Z,931.18
2017-08-25T00:09:17.144Z,931.2
2017-08-25T00:09:36.458Z,931.23
2017-08-25T00:09:55.254Z,931.18
2017-08-25T00:10:14.553Z,931.2
2017-08-25T00:10:33.840Z,931.21
2017-08-25T00:10:52.609Z,931.22
2017-08-25T00:11:10.885Z,931.2
2017-08-25T00:11:30.215Z,931.19
2017-08-25T00:11:49.497Z,931.21
2017-08-25T00:12:08.305Z,931.24
2017-08-25T00:12:27.623Z,931.24
2017-08-25T00:12:46.415Z,931.22
2017-08-25T00:13:05.714Z,931.18
2017-08-25T00:13:25.001Z,931.22
2017-08-25T00:13:44.294Z,931.25
2017-08-25T00:14:03.604Z,931.17
2017-08-25T00:14:22.413Z,931.23
2017-08-25T00:14:41.719Z,931.23
2017-08-25T00:15:00.993Z,931.23
2017-08-25T00:15:20.288Z,931.26
2017-08-25T00:15:39.074Z,931.26
2017-08-25T00:15:58.361Z,931.25
2017-08-25T00:16:17.642Z,931.25
2017-08-25T00:16:36.390Z,931.24
2017-08-25T00:16:55.161Z,931.24
2017-08-25T00:17:14.449Z,931.24
2017-08-25T00:17:33.745Z,931.24
2017-08-25T00:17:52.515Z,931.22
2017-08-25T00:18:10.769Z,931.23
2017-08-25T00:18:30.059Z,931.25
2017-08-25T00:18:49.379Z,931.22
2017-08-25T00:19:08.161Z,931.21
2017-08-25T00:19:26.915Z,931.27
2017-08-25T00:19:45.737Z,931.27
2017-08-25T00:20:04.001Z,931.23
2017-08-25T00:20:23.325Z,931.26
2017-08-25T00:20:41.581Z,931.24
2017-08-25T00:21:00.880Z,931.24
2017-08-25T00:21:19.699Z,931.25
2017-08-25T00:21:38.480Z,931.25
2017-08-25T00:21:57.761Z,931.26
2017-08-25T00:22:16.552Z,931.26
2017-08-25T00:22:34.815Z,931.29
2017-08-25T00:22:53.621Z,931.26
2017-08-25T00:23:11.889Z,931.27
2017-08-25T00:23:30.655Z,931.29
2017-08-25T00:23:49.941Z,931.3
2017-08-25T00:24:07.667Z,931.3
2017-08-25T00:24:25.903Z,931.3
2017-08-25T00:24:45.185Z,931.33
2017-08-25T00:25:03.958Z,931.3
2017-08-25T00:25:23.279Z,931.34
2017-08-25T00:25:42.587Z,931.32
2017-08-25T00:26:01.365Z,931.34
2017-08-25T00:26:20.683Z,931.32
2017-08-25T00:26:39.972Z,931.32
2017-08-25T00:26:58.222Z,931.31
2017-08-25T00:27:17.006Z,931.38
2017-08-25T00:27:35.266Z,931.37
2017-08-25T00:27:53.515Z,931.36
2017-08-25T00:28:12.301Z,931.37
2017-08-25T00:28:31.619Z,931.35
2017-08-25T00:28:50.937Z,931.32
2017-08-25T00:29:10.219Z,931.35
2017-08-25T00:29:28.998Z,931.32
2017-08-25T00:29:48.319Z,931.37
2017-08-25T00:30:06.585Z,931.37
2017-08-25T00:30:24.956Z,931.39
2017-08-25T00:30:43.737Z,931.37
2017-08-25T00:31:03.150Z,931.38
2017-08-25T00:31:23.151Z,931.4
2017-08-25T00:31:42.678Z,931.42
2017-08-25T00:32:02.279Z,931.42
2017-08-25T00:32:20.763Z,931.39
2017-08-25T00:32:39.613Z,931.37
2017-08-25T00:32:58.904Z,931.38
2017-08-25T00:33:18.185Z,931.41
2017-08-25T00:33:36.967Z,931.4
2017-08-25T00:33:56.250Z,931.43
2017-08-25T00:34:15.051Z,931.43
2017-08-25T00:34:34.418Z,931.44
2017-08-25T00:34:53.212Z,931.41
2017-08-25T00:35:11.477Z,931.42
2017-08-25T00:35:30.231Z,931.42
2017-08-25T00:35:49.007Z,931.42
2017-08-25T00:36:07.775Z,931.4
2017-08-25T00:36:27.072Z,931.42
2017-08-25T00:36:45.873Z,931.4
2017-08-25T00:37:04.663Z,931.41
2017-08-25T00:37:23.422Z,931.41
2017-08-25T00:37:42.204Z,931.42
2017-08-25T00:38:00.983Z,931.46
2017-08-25T00:38:20.278Z,931.47
2017-08-25T00:38:38.550Z,931.4
2017-08-25T00:38:57.846Z,931.41
2017-08-25T00:39:17.180Z,931.42
2017-08-25T00:39:36.485Z,931.41
2017-08-25T00:39:55.245Z,931.44
2017-08-25T00:40:14.525Z,931.41
2017-08-25T00:40:33.309Z,931.42
2017-08-25T00:40:52.847Z,931.43
2017-08-25T00:41:11.595Z,931.4
2017-08-25T00:41:30.360Z,931.41
2017-08-25T00:41:49.663Z,931.45
2017-08-25T00:42:08.441Z,931.44
2017-08-25T00:42:27.227Z,931.42
2017-08-25T00:42:46.541Z,931.41
2017-08-25T00:43:05.871Z,931.41
2017-08-25T00:43:24.133Z,931.41
2017-08-25T00:43:43.444Z,931.43
2017-08-25T00:44:01.715Z,931.41
2017-08-25T00:44:20.491Z,931.41
2017-08-25T00:44:39.773Z,931.44
2017-08-25T00:44:58.518Z,931.39
2017-08-25T00:45:17.299Z,931.42
2017-08-25T00:45:36.600Z,931.39
2017-08-25T00:45:55.912Z,931.42
2017-08-25T00:46:14.689Z,931.44
2017-08-25T00:46:33.451Z,931.38
2017-08-25T00:46:52.753Z,931.39
2017-08-25T00:47:11.556Z,931.41
2017-08-25T00:47:30.320Z,931.41
2017-08-25T00:47:49.627Z,931.41
2017-08-25T00:48:08.915Z,931.42
2017-08-25T00:48:28.208Z,931.44
2017-08-25T00:48:46.478Z,931.41
2017-08-25T00:49:04.710Z,931.42
2017-08-25T00:49:24.010Z,931.42
2017-08-25T00:49:42.789Z,931.45
2017-08-25T00:50:01.027Z,931.45
2017-08-25T00:50:19.280Z,931.43
2017-08-25T00:50:38.598Z,931.45
2017-08-25T00:50:56.847Z,931.43
2017-08-25T00:51:16.146Z,931.44
2017-08-25T00:51:34.401Z,931.47
2017-08-25T00:51:53.153Z,931.43
2017-08-25T00:52:12.448Z,931.43
2017-08-25T00:52:31.740Z,931.48
2017-08-25T00:52:51.069Z,931.46
2017-08-25T00:53:10.385Z,931.42
2017-08-25T00:53:28.655Z,931.42
2017-08-25T00:53:46.923Z,931.39
2017-08-25T00:54:05.680Z,931.44
2017-08-25T00:54:23.952Z,931.43
2017-08-25T00:54:43.257Z,931.42
2017-08-25T00:55:02.033Z,931.43
2017-08-25T00:55:21.365Z,931.46
2017-08-25T00:55:40.686Z,931.44
2017-08-25T00:55:59.467Z,931.41
2017-08-25T00:56:17.719Z,931.41
2017-08-25T00:56:36.489Z,931.4
2017-08-25T00:56:55.786Z,931.41
2017-08-25T00:57:15.088Z,931.45
2017-08-25T00:57:33.858Z,931.42
2017-08-25T00:57:53.149Z,931.44
2017-08-25T00:58:12.457Z,931.43
2017-08-25T00:58:30.733Z,931.43
2017-08-25T00:58:50.037Z,931.45
2017-08-25T00:59:08.837Z,931.43
2017-08-25T00:59:28.162Z,931.47
2017-08-25T00:59:46.414Z,931.46
2017-08-25T01:00:04.713Z,931.43
2017-08-25T01:00:23.463Z,931.49
2017-08-25T01:00:41.695Z,931.45
2017-08-25T01:01:00.487Z,931.48
2017-08-25T01:01:19.771Z,931.46
2017-08-25T01:01:38.570Z,931.45
2017-08-25T01:01:57.330Z,931.45
2017-08-25T01:02:16.091Z,931.49
2017-08-25T01:02:33.845Z,931.43
2017-08-25T01:02:52.610Z,931.5
2017-08-25T01:03:11.377Z,931.47
2017-08-25T01:03:30.703Z,931.47
2017-08-25T01:03:49.447Z,931.49
2017-08-25T01:04:08.720Z,931.5
2017-08-25T01:04:27.510Z,931.49
2017-08-25T01:04:46.302Z,931.5
2017-08-25T01:05:05.086Z,931.51
2017-08-25T01:05:24.408Z,931.45
2017-08-25T01:05:43.198Z,931.48
2017-08-25T01:06:02.509Z,931.47
2017-08-25T01:06:20.790Z,931.47
2017-08-25T01:06:39.585Z,931.46
2017-08-25T01:06:58.875Z,931.48
2017-08-25T01:07:18.151Z,931.47
2017-08-25T01:07:37.434Z,931.48
2017-08-25T01:07:55.675Z,931.49
2017-08-25T01:08:13.907Z,931.51
2017-08-25T01:08:33.230Z,931.51
2017-08-25T01:08:52.529Z,931.47
2017-08-25T01:09:11.312Z,931.47
2017-08-25T01:09:30.080Z,931.51
2017-08-25T01:09:49.362Z,931.48
2017-08-25T01:10:08.670Z,931.49
2017-08-25T01:10:27.536Z,931.49
2017-08-25T01:10:46.327Z,931.52
2017-08-25T01:11:05.624Z,931.51
2017-08-25T01:11:24.387Z,931.53
2017-08-25T01:11:43.671Z,931.52
2017-08-25T01:12:02.958Z,931.52
2017-08-25T01:12:21.213Z,931.5
2017-08-25T01:12:40.535Z,931.49
2017-08-25T01:12:58.810Z,931.5
2017-08-25T01:13:17.570Z,931.5
2017-08-25T01:13:36.336Z,931.48
2017-08-25T01:13:54.594Z,931.48
2017-08-25T01:14:13.882Z,931.51
2017-08-25T01:14:32.139Z,931.51
2017-08-25T01:14:51.482Z,931.49
2017-08-25T01:15:10.855Z,931.5
2017-08-25T01:15:29.657Z,931.5
2017-08-25T01:15:47.921Z,931.51
2017-08-25T01:16:05.649Z,931.5
2017-08-25T01:16:24.438Z,931.53
2017-08-25T01:16:43.746Z,931.53
2017-08-25T01:17:02.518Z,931.52
2017-08-25T01:17:21.326Z,931.5
2017-08-25T01:17:40.621Z,931.5
2017-08-25T01:17:59.384Z,931.48
2017-08-25T01:18:18.171Z,931.5
2017-08-25T01:18:36.426Z,931.48
2017-08-25T01:18:54.689Z,931.46
2017-08-25T01:19:13.519Z,931.47
2017-08-25T01:19:32.296Z,931.47
2017-08-25T01:19:51.598Z,931.48
2017-08-25T01:20:10.375Z,931.47
2017-08-25T01:20:29.161Z,931.5
2017-08-25T01:20:47.964Z,931.47
2017-08-25T01:21:06.222Z,931.46
2017-08-25T01:21:25.004Z,931.46
2017-08-25T01:21:44.295Z,931.48
2017-08-25T01:22:03.609Z,931.5
2017-08-25T01:22:22.918Z,931.47
2017-08-25T01:22:42.634Z,931.46
2017-08-25T01:23:01.400Z,931.48
2017-08-25T01:23:20.181Z,931.48
2017-08-25T01:23:38.959Z,931.45
2017-08-25T01:23:56.712Z,931.46
2017-08-25T01:24:15.468Z,931.5
2017-08-25T01:24:33.731Z,931.49
2017-08-25T01:24:52.508Z,931.5
2017-08-25T01:25:11.835Z,931.44
2017-08-25T01:25:30.596Z,931.43
2017-08-25T01:25:49.903Z,931.44
2017-08-25T01:26:08.679Z,931.45
2017-08-25T01:26:27.494Z,931.44
2017-08-25T01:26:46.247Z,931.45
2017-08-25T01:27:05.512Z,931.45
2017-08-25T01:27:24.305Z,931.44
2017-08-25T01:27:43.616Z,931.5
2017-08-25T01:28:02.372Z,931.48
2017-08-25T01:28:21.728Z,931.47
2017-08-25T01:28:41.017Z,931.46
2017-08-25T01:28:59.815Z,931.46
2017-08-25T01:29:18.578Z,931.45
2017-08-25T01:29:37.326Z,931.47
2017-08-25T01:29:56.638Z,931.49
2017-08-25T01:30:15.407Z,931.47
2017-08-25T01:30:34.172Z,931.49
2017-08-25T01:30:53.469Z,931.48
2017-08-25T01:31:12.244Z,931.45
2017-08-25T01:31:30.997Z,931.47
2017-08-25T01:31:49.764Z,931.45
2017-08-25T01:32:08.580Z,931.45
2017-08-25T01:32:27.897Z,931.42
2017-08-25T01:32:46.723Z,931.43
2017-08-25T01:33:05.497Z,931.42
2017-08-25T01:33:24.772Z,931.43
2017-08-25T01:33:44.073Z,931.44
2017-08-25T01:34:03.350Z,931.44
2017-08-25T01:34:22.702Z,931.44
2017-08-25T01:34:42.010Z,931.44
2017-08-25T01:35:01.306Z,931.43
2017-08-25T01:35:20.082Z,931.4
2017-08-25T01:35:39.350Z,931.41
2017-08-25T01:35:58.645Z,931.37
2017-08-25T01:36:17.400Z,931.39
2017-08-25T01:36:36.689Z,931.4
2017-08-25T01:36:55.453Z,931.42
2017-08-25T01:37:14.249Z,931.41
2017-08-25T01:37:33.016Z,931.39
2017-08-25T01:37:52.328Z,931.4
2017-08-25T01:38:11.611Z,931.42
2017-08-25T01:38:29.878Z,931.36
2017-08-25T01:38:48.644Z,931.39
2017-08-25T01:39:07.942Z,931.4
2017-08-25T01:39:27.264Z,931.42
2017-08-25T01:39:46.586Z,931.39
2017-08-25T01:40:05.869Z,931.36
2017-08-25T01:40:25.324Z,931.35
2017-08-25T01:40:44.630Z,931.34
2017-08-25T01:41:03.425Z,931.37
2017-08-25T01:41:22.754Z,931.37
2017-08-25T01:41:41.521Z,931.33
2017-08-25T01:42:00.335Z,931.37
2017-08-25T01:42:19.683Z,931.33
2017-08-25T01:42:38.445Z,931.34
2017-08-25T01:42:57.775Z,931.32
2017-08-25T01:43:16.544Z,931.32
2017-08-25T01:43:35.841Z,931.35
2017-08-25T01:43:54.621Z,931.35
2017-08-25T01:44:12.359Z,931.31
2017-08-25T01:44:31.147Z,931.33
2017-08-25T01:44:50.451Z,931.36
2017-08-25T01:45:09.231Z,931.35
2017-08-25T01:45:28.553Z,931.34
2017-08-25T01:45:47.851Z,931.34
2017-08-25T01:46:07.156Z,931.38
2017-08-25T01:46:25.916Z,931.37
2017-08-25T01:46:45.230Z,931.33
2017-08-25T01:47:04.531Z,931.33
2017-08-25T01:47:23.355Z,931.38
2017-08-25T01:47:42.139Z,931.34
2017-08-25T01:48:01.449Z,931.32
2017-08-25T01:48:20.219Z,931.35
2017-08-25T01:48:38.993Z,931.34
2017-08-25T01:48:58.278Z,931.4
2017-08-25T01:49:17.042Z,931.37
2017-08-25T01:49:35.840Z,931.32
2017-08-25T01:49:55.120Z,931.3
2017-08-25T01:50:13.995Z,931.37
2017-08-25T01:50:32.743Z,931.35
2017-08-25T01:50:51.512Z,931.32
2017-08-25T01:51:09.755Z,931.35
2017-08-25T01:51:28.006Z,931.36
2017-08-25T01:51:46.790Z,931.35
2017-08-25T01:52:06.077Z,931.36
2017-08-25T01:52:23.797Z,931.33
2017-08-25T01:52:43.114Z,931.35
2017-08-25T01:53:02.431Z,931.32
2017-08-25T01:53:21.214Z,931.37
2017-08-25T01:53:40.522Z,931.33
2017-08-25T01:53:59.809Z,931.31
2017-08-25T01:54:19.099Z,931.31
2017-08-25T01:54:37.322Z,931.31
2017-08-25T01:54:56.625Z,931.32
2017-08-25T01:55:15.426Z,931.31
2017-08-25T01:55:34.719Z,931.33
2017-08-25T01:55:52.977Z,931.33
2017-08-25T01:56:12.256Z,931.32
2017-08-25T01:56:31.582Z,931.33
2017-08-25T01:56:50.358Z,931.31
2017-08-25T01:57:09.666Z,931.35
2017-08-25T01:57:28.439Z,931.36
2017-08-25T01:57:47.218Z,931.36
2017-08-25T01:58:05.982Z,931.38
2017-08-25T01:58:24.774Z,931.35
2017-08-25T01:58:43.553Z,931.36
2017-08-25T01:59:01.811Z,931.39
2017-08-25T01:59:20.582Z,931.36
2017-08-25T01:59:38.336Z,931.33
2017-08-25T01:59:56.578Z,931.32
2017-08-25T02:00:15.332Z,931.31
2017-08-25T02:00:34.087Z,931.33
2017-08-25T02:00:52.849Z,931.35
2017-08-25T02:01:12.143Z,931.3
2017-08-25T02:01:31.464Z,931.33
2017-08-25T02:01:50.765Z,931.32
2017-08-25T02:02:10.069Z,931.33
2017-08-25T02:02:29.369Z,931.37
2017-08-25T02:02:48.678Z,931.38
2017-08-25T02:03:07.957Z,931.35
2017-08-25T02:03:27.245Z,931.35
2017-08-25T02:03:46.529Z,931.35
2017-08-25T02:04:05.873Z,931.34
2017-08-25T02:04:25.151Z,931.35
2017-08-25T02:04:44.463Z,931.35
2017-08-25T02:05:03.242Z,931.36
2017-08-25T02:05:21.533Z,931.36
2017-08-25T02:05:39.803Z,931.34
2017-08-25T02:05:58.588Z,931.37
2017-08-25T02:06:17.906Z,931.39
2017-08-25T02:06:36.181Z,931.38
2017-08-25T02:06:55.518Z,931.33
2017-08-25T02:07:14.825Z,931.36
2017-08-25T02:07:32.589Z,931.37
2017-08-25T02:07:51.906Z,931.33
2017-08-25T02:08:10.152Z,931.34
2017-08-25T02:08:29.443Z,931.32
2017-08-25T02:08:48.714Z,931.33
2017-08-25T02:09:08.032Z,931.29
2017-08-25T02:09:27.325Z,931.32
2017-08-25T02:09:46.109Z,931.32
2017-08-25T02:10:04.368Z,931.33
2017-08-25T02:10:23.677Z,931.36
2017-08-25T02:10:42.492Z,931.3
2017-08-25T02:11:00.774Z,931.32
2017-08-25T02:11:19.546Z,931.31
2017-08-25T02:11:38.328Z,931.3
2017-08-25T02:11:57.139Z,931.32
2017-08-25T02:12:16.655Z,931.3
2017-08-25T02:12:34.910Z,931.3
2017-08-25T02:12:54.735Z,931.35
2017-08-25T02:13:13.523Z,931.34
2017-08-25T02:13:32.360Z,931.33
2017-08-25T02:13:51.661Z,931.32
2017-08-25T02:14:09.914Z,931.31
2017-08-25T02:14:29.236Z,931.32
2017-08-25T02:14:48.546Z,931.32
2017-08-25T02:15:07.837Z,931.31
2017-08-25T02:15:26.083Z,931.31
2017-08-25T02:15:43.798Z,931.3
2017-08-25T02:16:03.104Z,931.29
2017-08-25T02:16:22.418Z,931.3
2017-08-25T02:16:41.759Z,931.32
2017-08-25T02:17:01.071Z,931.28
2017-08-25T02:17:19.872Z,931.31
2017-08-25T02:17:38.661Z,931.31
2017-08-25T02:17:57.456Z,931.3
2017-08-25T02:18:16.243Z,931.31
2017-08-25T02:18:35.033Z,931.31
2017-08-25T02:18:54.312Z,931.31
2017-08-25T02:19:13.084Z,931.31
2017-08-25T02:19:31.880Z,931.31
2017-08-25T02:19:51.169Z,931.33
2017-08-25T02:20:10.453Z,931.31
2017-08-25T02:20:29.790Z,931.27
2017-08-25T02:20:49.093Z,931.31
2017-08-25T02:21:08.402Z,931.28
2017-08-25T02:21:27.177Z,931.32
2017-08-25T02:21:46.478Z,931.32
2017-08-25T02:22:05.810Z,931.35
2017-08-25T02:22:24.074Z,931.35
2017-08-25T02:22:43.397Z,931.34
2017-08-25T02:23:02.151Z,931.35
2017-08-25T02:23:20.396Z,931.33
2017-08-25T02:23:39.182Z,931.35
2017-08-25T02:23:58.515Z,931.3
2017-08-25T02:24:17.301Z,931.31
2017-08-25T02:24:36.611Z,931.33
2017-08-25T02:24:55.922Z,931.28
2017-08-25T02:25:15.233Z,931.29
2017-08-25T02:25:34.000Z,931.32
2017-08-25T02:25:52.261Z,931.29
2017-08-25T02:26:10.020Z,931.32
2017-08-25T02:26:28.260Z,931.3
2017-08-25T02:26:47.562Z,931.28
2017-08-25T02:27:06.835Z,931.25
2017-08-25T02:27:26.154Z,931.27
2017-08-25T02:27:45.465Z,931.26
2017-08-25T02:28:04.215Z,931.25
2017-08-25T02:28:23.536Z,931.26
2017-08-25T02:28:42.827Z,931.27
2017-08-25T02:29:02.147Z,931.27
2017-08-25T02:29:21.481Z,931.23
2017-08-25T02:29:40.775Z,931.28
2017-08-25T02:30:00.085Z,931.23
2017-08-25T02:30:18.975Z,931.3
2017-08-25T02:30:38.285Z,931.28
2017-08-25T02:30:56.520Z,931.26
2017-08-25T02:31:15.291Z,931.28
2017-08-25T02:31:34.631Z,931.27
2017-08-25T02:31:53.430Z,931.23
2017-08-25T02:32:12.213Z,931.23
2017-08-25T02:32:29.927Z,931.25
2017-08-25T02:32:49.209Z,931.23
2017-08-25T02:33:07.978Z,931.22
2017-08-25T02:33:26.897Z,931.24
2017-08-25T02:33:46.186Z,931.22
2017-08-25T02:34:04.431Z,931.17
2017-08-25T02:34:23.752Z,931.23
2017-08-25T02:34:43.067Z,931.24
2017-08-25T02:35:02.381Z,931.19
2017-08-25T02:35:21.130Z,931.22
2017-08-25T02:35:39.910Z,931.21
2017-08-25T02:35:58.169Z,931.18
2017-08-25T02:36:17.480Z,931.19
2017-08-25T02:36:36.762Z,931.19
2017-08-25T02:36:55.016Z,931.23
2017-08-25T02:37:13.800Z,931.2
2017-08-25T02:37:32.106Z,931.22
2017-08-25T02:37:50.372Z,931.21
2017-08-25T02:38:09.667Z,931.19
2017-08-25T02:38:28.431Z,931.17
2017-08-25T02:38:47.235Z,931.15
2017-08-25T02:39:06.550Z,931.21
2017-08-25T02:39:25.325Z,931.2
2017-08-25T02:39:43.578Z,931.16
2017-08-25T02:40:02.359Z,931.16
2017-08-25T02:40:21.696Z,931.2
2017-08-25T02:40:40.470Z,931.22
2017-08-25T02:40:59.255Z,931.16
2017-08-25T02:41:18.026Z,931.18
2017-08-25T02:41:36.803Z,931.17
2017-08-25T02:41:56.109Z,931.22
2017-08-25T02:42:14.900Z,931.23
2017-08-25T02:42:33.697Z,931.23
2017-08-25T02:42:53.011Z,931.2
2017-08-25T02:43:12.293Z,931.24
2017-08-25T02:43:31.085Z,931.25
2017-08-25T02:43:50.396Z,931.22
2017-08-25T02:44:08.646Z,931.23
2017-08-25T02:44:27.973Z,931.23
2017-08-25T02:44:47.254Z,931.2
2017-08-25T02:45:06.122Z,931.2
2017-08-25T02:45:24.907Z,931.21
2017-08-25T02:45:44.222Z,931.21
2017-08-25T02:46:03.519Z,931.22
2017-08-25T02:46:22.821Z,931.24
2017-08-25T02:46:42.126Z,931.25
2017-08-25T02:47:01.458Z,931.26
2017-08-25T02:47:20.795Z,931.22
2017-08-25T02:47:40.114Z,931.26
2017-08-25T02:47:57.844Z,931.24
2017-08-25T02:48:16.626Z,931.23
2017-08-25T02:48:35.400Z,931.24
2017-08-25T02:48:54.188Z,931.22
2017-08-25T02:49:13.529Z,931.21
2017-08-25T02:49:32.845Z,931.25
2017-08-25T02:49:52.139Z,931.21
2017-08-25T02:50:11.445Z,931.24
2017-08-25T02:50:29.707Z,931.22
2017-08-25T02:50:48.988Z,931.22
2017-08-25T02:51:07.238Z,931.21
2017-08-25T02:51:26.552Z,931.23
2017-08-25T02:51:45.336Z,931.23
2017-08-25T02:52:04.129Z,931.24
2017-08-25T02:52:23.465Z,931.18
2017-08-25T02:52:42.773Z,931.23
2017-08-25T02:53:02.069Z,931.22
2017-08-25T02:53:21.370Z,931.24
2017-08-25T02:53:40.659Z,931.23
2017-08-25T02:53:59.467Z,931.24
2017-08-25T02:54:18.306Z,931.16
2017-08-25T02:54:37.109Z,931.2
2017-08-25T02:54:56.406Z,931.21
2017-08-25T02:55:15.182Z,931.21
2017-08-25T02:55:33.966Z,931.22
2017-08-25T02:55:52.747Z,931.24
2017-08-25T02:56:10.471Z,931.22
2017-08-25T02:56:29.262Z,931.27
2017-08-25T02:56:48.557Z,931.25
2017-08-25T02:57:07.385Z,931.2
2017-08-25T02:57:26.675Z,931.23
2017-08-25T02:57:45.451Z,931.22
2017-08-25T02:58:04.225Z,931.21
2017-08-25T02:58:23.546Z,931.17
2017-08-25T02:58:42.851Z,931.18
2017-08-25T02:59:01.661Z,931.15
2017-08-25T02:59:19.907Z,931.13
2017-08-25T02:59:39.218Z,931.16
2017-08-25T02:59:58.030Z,931.15
2017-08-25T03:00:16.800Z,931.16
2017-08-25T03:00:35.571Z,931.11
2017-08-25T03:00:54.856Z,931.19
2017-08-25T03:01:14.194Z,931.17
2017-08-25T03:01:33.511Z,931.18
2017-08-25T03:01:52.801Z,931.18
2017-08-25T03:02:11.570Z,931.16
2017-08-25T03:02:29.836Z,931.16
2017-08-25T03:02:49.136Z,931.16
2017-08-25T03:03:07.393Z,931.18
2017-08-25T03:03:26.163Z,931.18
2017-08-25T03:03:44.961Z,931.18
2017-08-25T03:04:03.218Z,931.15
2017-08-25T03:04:21.474Z,931.17
2017-08-25T03:04:40.754Z,931.15
2017-08-25T03:05:00.029Z,931.16
2017-08-25T03:05:18.817Z,931.16
2017-08-25T03:05:37.608Z,931.17
2017-08-25T03:05:56.904Z,931.18
2017-08-25T03:06:15.149Z,931.18
2017-08-25T03:06:33.918Z,931.2
2017-08-25T03:06:53.246Z,931.13
2017-08-25T03:07:12.041Z,931.16
2017-08-25T03:07:30.816Z,931.17
2017-08-25T03:07:50.110Z,931.19
2017-08-25T03:08:08.885Z,931.17
2017-08-25T03:08:28.226Z,931.23
2017-08-25T03:08:47.519Z,931.17
2017-08-25T03:09:06.292Z,931.17
2017-08-25T03:09:25.605Z,931.17
2017-08-25T03:09:44.357Z,931.16
2017-08-25T03:10:03.144Z,931.2
2017-08-25T03:10:22.467Z,931.18
2017-08-25T03:10:41.235Z,931.16
2017-08-25T03:11:00.528Z,931.16
2017-08-25T03:11:19.296Z,931.2
2017-08-25T03:11:38.581Z,931.17
2017-08-25T03:11:57.875Z,931.17
2017-08-25T03:12:17.206Z,931.2
2017-08-25T03:12:36.493Z,931.14
2017-08-25T03:12:55.804Z,931.18
2017-08-25T03:13:15.101Z,931.16
2017-08-25T03:13:33.904Z,931.18
2017-08-25T03:13:53.234Z,931.18
2017-08-25T03:14:12.001Z,931.17
2017-08-25T03:14:31.306Z,931.16
2017-08-25T03:14:50.587Z,931.14
2017-08-25T03:15:09.366Z,931.14
2017-08-25T03:15:28.661Z,931.16
2017-08-25T03:15:47.958Z,931.17
2017-08-25T03:16:06.741Z,931.18
2017-08-25T03:16:25.500Z,931.12
2017-08-25T03:16:44.794Z,931.13
2017-08-25T03:17:04.076Z,931.12
2017-08-25T03:17:23.400Z,931.16
2017-08-25T03:17:42.715Z,931.18
2017-08-25T03:18:02.054Z,931.18
2017-08-25T03:18:20.825Z,931.16
2017-08-25T03:18:39.615Z,931.16
2017-08-25T03:18:58.396Z,931.14
2017-08-25T03:19:17.720Z,931.15
2017-08-25T03:19:37.057Z,931.18
2017-08-25T03:19:56.352Z,931.21
2017-08-25T03:20:14.605Z,931.19
2017-08-25T03:20:33.364Z,931.16
2017-08-25T03:20:52.676Z,931.12
2017-08-25T03:21:11.979Z,931.14
2017-08-25T03:21:30.247Z,931.13
2017-08-25T03:21:49.031Z,931.15
2017-08-25T03:22:08.324Z,931.16
2017-08-25T03:22:26.570Z,931.14
2017-08-25T03:22:44.861Z,931.17
2017-08-25T03:23:03.636Z,931.12
2017-08-25T03:23:22.961Z,931.16
2017-08-25T03:23:41.196Z,931.17
2017-08-25T03:23:59.970Z,931.2
2017-08-25T03:24:19.260Z,931.16
2017-08-25T03:24:38.562Z,931.13
2017-08-25T03:24:57.930Z,931.15
2017-08-25T03:25:16.187Z,931.15
2017-08-25T03:25:35.496Z,931.16
2017-08-25T03:25:53.739Z,931.17
2017-08-25T03:26:13.016Z,931.21
2017-08-25T03:26:31.790Z,931.22
2017-08-25T03:26:50.567Z,931.19
2017-08-25T03:27:09.321Z,931.18
2017-08-25T03:27:28.635Z,931.16
2017-08-25T03:27:47.406Z,931.21
2017-08-25T03:28:06.724Z,931.18
2017-08-25T03:28:26.002Z,931.18
2017-08-25T03:28:45.280Z,931.19
2017-08-25T03:29:04.044Z,931.19
2017-08-25T03:29:22.316Z,931.19
2017-08-25T03:29:41.084Z,931.17
2017-08-25T03:29:59.859Z,931.2
2017-08-25T03:30:18.636Z,931.21
2017-08-25T03:30:36.887Z,931.21
2017-08-25T03:30:55.658Z,931.23
2017-08-25T03:31:14.972Z,931.21
2017-08-25T03:31:33.739Z,931.22
2017-08-25T03:31:53.042Z,931.14
2017-08-25T03:32:10.810Z,931.19
2017-08-25T03:32:30.140Z,931.2
2017-08-25T03:32:48.892Z,931.17
2017-08-25T03:33:08.211Z,931.22
2017-08-25T03:33:26.967Z,931.17
2017-08-25T03:33:46.261Z,931.21
2017-08-25T03:34:05.035Z,931.18
2017-08-25T03:34:23.291Z,931.21
2017-08-25T03:34:42.600Z,931.19
2017-08-25T03:35:01.364Z,931.19
2017-08-25T03:35:20.142Z,931.2
2017-08-25T03:35:38.379Z,931.18
2017-08-25T03:35:57.648Z,931.16
2017-08-25T03:36:16.950Z,931.18
2017-08-25T03:36:34.719Z,931.2
2017-08-25T03:36:54.045Z,931.17
2017-08-25T03:37:12.818Z,931.14
2017-08-25T03:37:32.125Z,931.19
2017-08-25T03:37:51.428Z,931.17
2017-08-25T03:38:10.726Z,931.15
2017-08-25T03:38:29.507Z,931.15
2017-08-25T03:38:48.277Z,931.13
2017-08-25T03:39:07.552Z,931.12
2017-08-25T03:39:26.327Z,931.16
2017-08-25T03:39:44.572Z,931.18
2017-08-25T03:40:03.874Z,931.15
2017-08-25T03:40:23.175Z,931.15
2017-08-25T03:40:42.489Z,931.14
2017-08-25T03:41:01.252Z,931.12
2017-08-25T03:41:20.570Z,931.13
2017-08-25T03:41:39.357Z,931.13
2017-08-25T03:41:58.687Z,931.11
2017-08-25T03:42:17.998Z,931.16
2017-08-25T03:42:36.790Z,931.16
2017-08-25T03:42:55.591Z,931.17
2017-08-25T03:43:14.885Z,931.12
2017-08-25T03:43:34.208Z,931.16
2017-08-25T03:43:53.515Z,931.14
2017-08-25T03:44:12.312Z,931.14
2017-08-25T03:44:31.632Z,931.17
2017-08-25T03:44:50.422Z,931.14
2017-08-25T03:45:09.200Z,931.08
2017-08-25T03:45:28.529Z,931.05
2017-08-25T03:45:47.296Z,931.09
2017-08-25T03:46:06.081Z,931.14
2017-08-25T03:46:24.347Z,931.12
2017-08-25T03:46:43.646Z,931.11
2017-08-25T03:47:02.452Z,931.12
2017-08-25T03:47:21.736Z,931.12
2017-08-25T03:47:41.010Z,931.09
2017-08-25T03:47:59.794Z,931.14
2017-08-25T03:48:19.082Z,931.13
2017-08-25T03:48:38.375Z,931.1
2017-08-25T03:48:57.143Z,931.1
2017-08-25T03:49:15.393Z,931.1
2017-08-25T03:49:34.682Z,931.12
2017-08-25T03:49:52.911Z,931.05
2017-08-25T03:50:11.715Z,931.1
2017-08-25T03:50:30.503Z,931.05
2017-08-25T03:50:48.734Z,931.04
2017-08-25T03:51:07.521Z,931.09
2017-08-25T03:51:26.821Z,931.04
2017-08-25T03:51:46.131Z,931.05
2017-08-25T03:52:04.897Z,931.06
2017-08-25T03:52:24.179Z,931.02
2017-08-25T03:52:43.460Z,931.02
2017-08-25T03:53:01.188Z,931.06
2017-08-25T03:53:19.943Z,931.03
2017-08-25T03:53:38.211Z,931.01
2017-08-25T03:53:57.014Z,931.03
2017-08-25T03:54:15.798Z,931
2017-08-25T03:54:35.109Z,931.04
2017-08-25T03:54:54.412Z,931.05
2017-08-25T03:55:12.687Z,931.03
2017-08-25T03:55:31.964Z,931.02
2017-08-25T03:55:50.743Z,931.04
2017-08-25T03:56:09.513Z,931.04
2017-08-25T03:56:28.805Z,930.99
2017-08-25T03:56:47.035Z,931.04